Time;durP1;ratioP1;P1;durP2;ratioP2;P2;SDS_P1;SDS_P2;PMS_P1;PMS_P2;Temp;Humidity;BMP_temperature;BMP_pressure;BME280_temperature;BME280_humidity;BME280_pressure;Samples;Min_cycle;Max_cycle;Signal;HPM_P1;HPM_P2
2022/07/27 00:01:21;;;;;;;1999.90;999.90;;;17.90;99.90;;;;;;5018451;28;20200;-72
2022/07/27 00:03:47;;;;;;;1999.90;999.90;;;17.90;99.90;;;;;;5016012;28;20184;-70
2022/07/27 00:06:13;;;;;;;1999.90;999.90;;;17.90;99.90;;;;;;5013320;28;20170;-71
2022/07/27 00:08:38;;;;;;;1999.90;999.90;;;17.90;99.90;;;;;;5013460;28;20427;-71
2022/07/27 00:11:04;;;;;;;1999.90;999.90;;;17.90;99.90;;;;;;5016840;28;20248;-71
2022/07/27 00:13:30;;;;;;;1999.90;999.90;;;17.80;99.90;;;;;;5018399;28;20192;-72
2022/07/27 00:15:56;;;;;;;1999.90;999.90;;;17.80;99.90;;;;;;5013679;28;20772;-71
2022/07/27 00:18:21;;;;;;;1999.90;999.90;;;17.80;99.90;;;;;;5013506;28;20202;-71
2022/07/27 00:20:47;;;;;;;1999.90;999.90;;;17.70;99.90;;;;;;5013463;28;20174;-71
2022/07/27 00:23:13;;;;;;;1999.90;999.90;;;17.60;99.90;;;;;;5013351;28;20250;-71
2022/07/27 00:25:39;;;;;;;1999.90;999.90;;;17.60;99.90;;;;;;5013195;28;20460;-71
2022/07/27 00:28:05;;;;;;;1999.90;999.90;;;17.60;99.90;;;;;;5012873;28;20169;-70
2022/07/27 00:30:30;;;;;;;1999.90;999.90;;;17.50;99.90;;;;;;5013004;28;20212;-71
2022/07/27 00:32:56;;;;;;;1999.90;999.90;;;17.50;99.90;;;;;;5013104;28;20919;-71
2022/07/27 00:35:22;;;;;;;1999.90;999.90;;;17.50;99.90;;;;;;5013158;28;20259;-71
2022/07/27 00:37:48;;;;;;;1999.90;999.90;;;17.50;99.90;;;;;;5013074;28;20257;-72
2022/07/27 00:40:13;;;;;;;1999.90;999.90;;;17.50;99.90;;;;;;5013288;28;20833;-71
2022/07/27 00:42:39;;;;;;;1999.90;999.90;;;17.40;99.90;;;;;;5012143;28;20788;-71
2022/07/27 00:45:05;;;;;;;1999.90;999.90;;;17.40;99.90;;;;;;5012897;28;20404;-70
2022/07/27 00:47:31;;;;;;;1999.90;999.90;;;17.30;99.90;;;;;;5012514;28;20178;-70
2022/07/27 00:49:57;;;;;;;1999.90;999.90;;;17.20;99.90;;;;;;5012791;28;20419;-71
2022/07/27 00:52:23;;;;;;;1999.90;999.90;;;17.10;99.90;;;;;;5015071;28;20173;-72
2022/07/27 00:54:49;;;;;;;1999.90;999.90;;;17.10;99.90;;;;;;5014705;28;20918;-72
2022/07/27 00:57:15;;;;;;;1999.90;999.90;;;17.00;99.90;;;;;;5012796;28;20964;-72
2022/07/27 00:59:41;;;;;;;1999.90;999.90;;;17.00;99.90;;;;;;5013078;28;20455;-71
2022/07/27 01:02:08;;;;;;;1999.90;999.90;;;16.90;99.90;;;;;;5013223;28;20746;-71
2022/07/27 01:04:34;;;;;;;1999.90;999.90;;;16.90;99.90;;;;;;5012686;28;20408;-72
2022/07/27 01:07:01;;;;;;;1999.90;999.90;;;16.90;99.90;;;;;;5012571;28;20402;-72
2022/07/27 01:12:16;;;;;;;1999.90;999.90;;;16.90;99.90;;;;;;5013891;28;20771;-72
2022/07/27 01:14:42;;;;;;;1999.90;999.90;;;16.90;99.90;;;;;;5014455;28;20950;-71
2022/07/27 01:17:08;;;;;;;1999.90;999.90;;;16.90;99.90;;;;;;5014811;28;20819;-72
2022/07/27 01:19:34;;;;;;;1999.90;999.90;;;16.90;99.90;;;;;;5014852;28;20481;-72
2022/07/27 01:22:01;;;;;;;1999.90;999.90;;;16.90;99.90;;;;;;5014945;28;20458;-71
2022/07/27 01:24:27;;;;;;;1999.90;999.90;;;17.00;99.90;;;;;;5015574;28;20857;-72
2022/07/27 01:26:52;;;;;;;1999.90;999.90;;;16.90;99.90;;;;;;5014504;28;20408;-70
2022/07/27 01:29:18;;;;;;;1999.90;999.90;;;16.90;99.90;;;;;;5012145;28;20287;-71
2022/07/27 01:31:44;;;;;;;1999.90;999.90;;;16.90;99.90;;;;;;5012248;28;20179;-71
2022/07/27 01:34:09;;;;;;;1999.90;999.90;;;16.90;99.90;;;;;;5012361;28;20174;-72
2022/07/27 01:36:35;;;;;;;1999.90;999.90;;;16.80;99.90;;;;;;5011973;28;20182;-71
2022/07/27 01:39:00;;;;;;;1999.90;999.90;;;16.70;99.90;;;;;;5012181;28;20273;-71
2022/07/27 01:41:26;;;;;;;1999.90;999.90;;;16.60;99.90;;;;;;5012054;28;20263;-70
2022/07/27 01:43:52;;;;;;;1999.90;999.90;;;16.60;99.90;;;;;;5012165;28;20178;-74
2022/07/27 01:46:17;;;;;;;1999.90;999.90;;;16.50;99.90;;;;;;5011814;28;20533;-74
2022/07/27 01:48:43;;;;;;;1999.90;999.90;;;16.50;99.90;;;;;;5011993;28;20189;-73
2022/07/27 01:51:08;;;;;;;1999.90;999.90;;;16.40;99.90;;;;;;5012214;28;20229;-73
2022/07/27 01:53:34;;;;;;;1999.90;999.90;;;16.40;99.90;;;;;;5012686;28;20174;-73
2022/07/27 01:56:00;;;;;;;1999.90;999.90;;;16.40;99.90;;;;;;5015733;28;20282;-73
2022/07/27 01:58:25;;;;;;;1999.90;999.90;;;16.30;99.90;;;;;;5015925;28;20199;-73
2022/07/27 02:00:51;;;;;;;1999.90;999.90;;;16.30;99.90;;;;;;5015840;28;20169;-73
2022/07/27 02:03:16;;;;;;;1999.90;999.90;;;16.30;99.90;;;;;;5017565;28;20650;-74
2022/07/27 02:05:42;;;;;;;1999.90;999.90;;;16.20;99.90;;;;;;5016210;28;20162;-71
2022/07/27 02:08:08;;;;;;;1999.90;999.90;;;16.30;99.90;;;;;;5015761;28;20543;-71
2022/07/27 02:10:35;;;;;;;1999.90;999.90;;;16.20;99.90;;;;;;5019527;28;20173;-75
2022/07/27 02:13:01;;;;;;;1999.90;999.90;;;16.30;99.90;;;;;;5021400;28;20410;-75
2022/07/27 02:15:28;;;;;;;1999.90;999.90;;;16.20;99.90;;;;;;5021283;28;20422;-75
2022/07/27 02:17:55;;;;;;;1999.90;999.90;;;16.20;99.90;;;;;;5021347;28;20174;-72
2022/07/27 02:20:24;;;;;;;1999.90;999.90;;;16.10;99.90;;;;;;5020054;28;20439;-72
2022/07/27 02:22:50;;;;;;;1999.90;999.90;;;16.10;99.90;;;;;;5021007;28;20459;-72
2022/07/27 02:25:18;;;;;;;1999.90;999.90;;;16.00;99.90;;;;;;5019269;28;20894;-74
2022/07/27 02:27:44;;;;;;;1999.90;999.90;;;16.00;99.90;;;;;;5015164;28;20407;-73
2022/07/27 02:30:11;;;;;;;1999.90;999.90;;;16.00;99.90;;;;;;5015226;28;20800;-74
2022/07/27 02:32:37;;;;;;;1999.90;999.90;;;15.90;99.90;;;;;;5015512;28;21046;-71
2022/07/27 02:35:03;;;;;;;1999.90;999.90;;;15.80;99.90;;;;;;5015370;28;20446;-74
2022/07/27 02:37:30;;;;;;;1999.90;999.90;;;15.70;99.90;;;;;;5015047;28;20553;-74
2022/07/27 02:39:55;;;;;;;1999.90;999.90;;;15.60;99.90;;;;;;5015152;28;20459;-74
2022/07/27 02:42:21;;;;;;;1999.90;999.90;;;15.60;99.90;;;;;;5015144;28;20544;-74
2022/07/27 02:44:46;;;;;;;1999.90;999.90;;;15.50;99.90;;;;;;5015089;28;20185;-74
2022/07/27 02:47:12;;;;;;;1999.90;999.90;;;15.40;99.90;;;;;;5014818;28;20167;-74
2022/07/27 02:49:38;;;;;;;1999.90;999.90;;;15.30;99.90;;;;;;5014972;28;20680;-74
2022/07/27 02:52:04;;;;;;;1999.90;999.90;;;15.20;99.90;;;;;;5014977;28;20565;-73
2022/07/27 02:54:31;;;;;;;1999.90;999.90;;;15.20;99.90;;;;;;5014964;28;20178;-73
2022/07/27 02:56:59;;;;;;;1999.90;999.90;;;15.10;99.90;;;;;;5014777;28;20438;-73
2022/07/27 02:59:25;;;;;;;1999.90;999.90;;;15.10;99.90;;;;;;5015391;28;20516;-74
2022/07/27 03:01:51;;;;;;;1999.90;999.90;;;15.10;99.90;;;;;;5015475;28;20490;-74
2022/07/27 03:04:17;;;;;;;1999.90;999.90;;;15.20;99.90;;;;;;5015472;28;20831;-74
2022/07/27 03:06:43;;;;;;;1999.90;999.90;;;15.20;99.90;;;;;;5014435;28;20603;-74
2022/07/27 03:09:10;;;;;;;1999.90;999.90;;;15.10;99.90;;;;;;5015256;28;20458;-73
2022/07/27 03:11:36;;;;;;;1999.90;999.90;;;15.10;99.90;;;;;;5015486;28;20409;-74
2022/07/27 03:14:02;;;;;;;1999.90;999.90;;;15.20;99.90;;;;;;5015054;28;20970;-74
2022/07/27 03:16:27;;;;;;;1999.90;999.90;;;15.10;99.90;;;;;;5015014;28;20425;-74
2022/07/27 03:18:53;;;;;;;1999.90;999.90;;;15.00;99.90;;;;;;5015312;28;20427;-74
2022/07/27 03:21:19;;;;;;;1999.90;999.90;;;14.90;99.90;;;;;;5015481;28;20251;-75
2022/07/27 03:23:44;;;;;;;1999.90;999.90;;;14.80;99.90;;;;;;5014601;28;20260;-74
2022/07/27 03:26:10;;;;;;;1999.90;999.90;;;14.70;99.90;;;;;;5014150;28;20195;-74
2022/07/27 03:28:36;;;;;;;1999.90;999.90;;;14.50;99.90;;;;;;5014148;28;20291;-74
2022/07/27 03:31:02;;;;;;;1999.90;999.90;;;14.50;99.90;;;;;;5014419;28;20233;-74
2022/07/27 03:33:28;;;;;;;1999.90;999.90;;;14.40;99.90;;;;;;5014302;28;20171;-74
2022/07/27 03:35:54;;;;;;;1999.90;999.90;;;14.40;99.90;;;;;;5014072;28;20431;-74
2022/07/27 03:38:21;;;;;;;1999.90;999.90;;;14.40;99.90;;;;;;5013886;28;20194;-74
2022/07/27 03:40:47;;;;;;;1999.90;999.90;;;14.50;99.90;;;;;;5014030;28;20444;-73
2022/07/27 03:43:13;;;;;;;1999.90;999.90;;;14.40;99.90;;;;;;5014726;28;20494;-74
2022/07/27 03:45:38;;;;;;;1999.90;999.90;;;14.40;99.90;;;;;;5014279;28;20413;-74
2022/07/27 03:48:05;;;;;;;1999.90;999.90;;;14.40;99.90;;;;;;5013642;28;20594;-74
2022/07/27 03:50:30;;;;;;;1999.90;999.90;;;14.40;99.90;;;;;;5014125;28;20259;-74
2022/07/27 03:52:56;;;;;;;1999.90;999.90;;;14.40;99.90;;;;;;5014667;28;20849;-74
2022/07/27 03:55:22;;;;;;;1999.90;999.90;;;14.40;99.90;;;;;;5013925;28;20174;-73
2022/07/27 03:57:47;;;;;;;1999.90;999.90;;;14.40;99.90;;;;;;5013486;28;20188;-73
2022/07/27 04:00:14;;;;;;;1999.90;999.90;;;14.30;99.90;;;;;;5013668;28;20195;-73
2022/07/27 04:02:40;;;;;;;1999.90;999.90;;;14.30;99.90;;;;;;5013554;28;20304;-74
2022/07/27 04:05:07;;;;;;;1999.90;999.90;;;14.30;99.90;;;;;;5013639;28;20406;-70
2022/07/27 04:07:32;;;;;;;1999.90;999.90;;;14.20;99.90;;;;;;5014056;28;20402;-72
2022/07/27 04:09:58;;;;;;;1999.90;999.90;;;14.20;99.90;;;;;;5014677;28;20429;-75
2022/07/27 04:12:24;;;;;;;1999.90;999.90;;;14.30;99.90;;;;;;5014960;28;20690;-75
2022/07/27 04:14:49;;;;;;;1999.90;999.90;;;14.20;99.90;;;;;;5014462;28;20178;-75
2022/07/27 04:17:15;;;;;;;1999.90;999.90;;;14.30;99.90;;;;;;5015023;28;20371;-75
2022/07/27 04:19:40;;;;;;;1999.90;999.90;;;14.30;99.90;;;;;;5015228;28;20265;-73
2022/07/27 04:22:06;;;;;;;1999.90;999.90;;;14.30;99.90;;;;;;5013194;28;20206;-73
2022/07/27 04:24:32;;;;;;;1999.90;999.90;;;14.40;99.90;;;;;;5013329;28;20195;-73
2022/07/27 04:26:57;;;;;;;1999.90;999.90;;;14.40;99.90;;;;;;5012925;28;20254;-73
2022/07/27 04:29:23;;;;;;;1999.90;999.90;;;14.40;99.90;;;;;;5013001;28;20204;-73
2022/07/27 04:31:49;;;;;;;1999.90;999.90;;;14.40;99.90;;;;;;5014452;28;20182;-74
2022/07/27 04:34:15;;;;;;;1999.90;999.90;;;14.30;99.90;;;;;;5014787;28;20412;-75
2022/07/27 04:36:40;;;;;;;1999.90;999.90;;;14.20;99.90;;;;;;5014580;28;20183;-75
2022/07/27 04:39:06;;;;;;;1999.90;999.90;;;14.10;99.90;;;;;;5014485;28;20225;-75
2022/07/27 04:41:31;;;;;;;1999.90;999.90;;;14.10;99.90;;;;;;5013441;28;20209;-75
2022/07/27 04:43:57;;;;;;;1999.90;999.90;;;14.00;99.90;;;;;;5013627;28;20177;-75
2022/07/27 04:46:23;;;;;;;1999.90;999.90;;;14.00;99.90;;;;;;5013348;28;20577;-75
2022/07/27 04:48:49;;;;;;;1999.90;999.90;;;14.00;99.90;;;;;;5013698;28;20196;-75
2022/07/27 04:51:16;;;;;;;1999.90;999.90;;;14.10;99.90;;;;;;5013558;28;20481;-74
2022/07/27 04:53:41;;;;;;;1999.90;999.90;;;14.20;99.90;;;;;;5013227;28;20869;-74
2022/07/27 04:56:08;;;;;;;1999.90;999.90;;;14.30;99.90;;;;;;5013182;28;20446;-75
2022/07/27 04:58:34;;;;;;;1999.90;999.90;;;14.40;99.90;;;;;;5012972;28;20192;-73
2022/07/27 05:01:00;;;;;;;1999.90;999.90;;;14.40;99.90;;;;;;5012801;28;20412;-74
2022/07/27 05:03:25;;;;;;;1999.90;999.90;;;14.50;99.90;;;;;;5012795;28;20407;-73
2022/07/27 05:05:51;;;;;;;1999.90;999.90;;;14.50;99.90;;;;;;5012558;28;20215;-73
2022/07/27 05:08:18;;;;;;;1999.90;999.90;;;14.50;99.90;;;;;;5012353;28;20183;-73
2022/07/27 05:10:43;;;;;;;1999.90;999.90;;;14.50;99.90;;;;;;5012577;28;20419;-73
2022/07/27 05:13:09;;;;;;;1999.90;999.90;;;14.50;99.90;;;;;;5012523;28;20883;-73
2022/07/27 05:15:34;;;;;;;1999.90;999.90;;;14.50;99.90;;;;;;5012482;28;20550;-73
2022/07/27 05:18:00;;;;;;;1999.90;999.90;;;14.50;99.90;;;;;;5012761;28;20180;-75
2022/07/27 05:20:26;;;;;;;1999.90;999.90;;;14.50;99.90;;;;;;5013555;28;20261;-75
2022/07/27 05:22:51;;;;;;;1999.90;999.90;;;14.50;99.90;;;;;;5013093;28;20648;-75
2022/07/27 05:25:17;;;;;;;1999.90;999.90;;;14.40;99.90;;;;;;5013818;28;20215;-75
2022/07/27 05:27:43;;;;;;;1999.90;999.90;;;14.50;99.90;;;;;;5012737;28;20177;-74
2022/07/27 05:30:09;;;;;;;1999.90;999.90;;;14.40;99.90;;;;;;5013316;28;20457;-75
2022/07/27 05:32:35;;;;;;;1999.90;999.90;;;14.50;99.90;;;;;;5013514;28;20182;-75
2022/07/27 05:35:01;;;;;;;1999.90;999.90;;;14.50;99.90;;;;;;5013896;28;20788;-75
2022/07/27 05:37:26;;;;;;;1999.90;999.90;;;14.50;99.90;;;;;;5013687;28;20174;-75
2022/07/27 05:39:52;;;;;;;1999.90;999.90;;;14.50;99.90;;;;;;5015104;28;20601;-75
2022/07/27 05:42:17;;;;;;;1999.90;999.90;;;14.50;99.90;;;;;;5015074;28;20285;-75
2022/07/27 05:44:43;;;;;;;1999.90;999.90;;;14.50;99.90;;;;;;5014487;28;20165;-75
2022/07/27 05:47:08;;;;;;;1999.90;999.90;;;14.60;99.90;;;;;;5013758;28;20168;-75
2022/07/27 05:49:34;;;;;;;1999.90;999.90;;;14.50;99.90;;;;;;5016156;28;20690;-74
2022/07/27 05:52:00;;;;;;;1999.90;999.90;;;14.60;99.90;;;;;;5015511;28;20174;-72
2022/07/27 05:54:25;;;;;;;1999.90;999.90;;;14.60;99.90;;;;;;5014592;28;20669;-75
2022/07/27 05:56:51;;;;;;;1999.90;999.90;;;14.70;99.90;;;;;;5013911;28;20171;-75
2022/07/27 05:59:17;;;;;;;1999.90;999.90;;;14.80;99.90;;;;;;5014939;28;20200;-74
2022/07/27 06:01:43;;;;;;;1999.90;999.90;;;14.90;99.90;;;;;;5011981;28;20200;-73
2022/07/27 06:04:08;;;;;;;1999.90;999.90;;;15.00;99.90;;;;;;5011955;28;20167;-73
2022/07/27 06:09:18;;;;;;;1999.90;999.90;;;15.20;99.90;;;;;;5011811;28;20617;-73
2022/07/27 06:11:44;;;;;;;1999.90;999.90;;;15.20;99.90;;;;;;5011933;28;20500;-74
2022/07/27 06:14:09;;;;;;;1999.90;999.90;;;15.20;99.90;;;;;;5011864;28;20215;-73
2022/07/27 06:16:35;;;;;;;1999.90;999.90;;;15.30;99.90;;;;;;5011585;28;20176;-73
2022/07/27 06:19:01;;;;;;;1999.90;999.90;;;15.40;99.90;;;;;;5011755;28;20193;-73
2022/07/27 06:21:27;;;;;;;1999.90;999.90;;;15.40;99.90;;;;;;5010787;28;20483;-73
2022/07/27 06:23:53;;;;;;;1999.90;999.90;;;15.50;99.90;;;;;;5015324;28;20253;-74
2022/07/27 06:26:19;;;;;;;1999.90;999.90;;;15.60;99.90;;;;;;5013831;28;20181;-74
2022/07/27 06:28:45;;;;;;;1999.90;999.90;;;15.70;99.90;;;;;;5015315;28;20449;-74
2022/07/27 06:31:11;;;;;;;1999.90;999.90;;;15.80;99.90;;;;;;5017359;28;20639;-74
2022/07/27 06:33:37;;;;;;;1999.90;999.90;;;15.70;99.90;;;;;;5013763;28;20415;-74
2022/07/27 06:36:04;;;;;;;1999.90;999.90;;;15.80;99.90;;;;;;5013242;28;20408;-74
2022/07/27 06:38:30;;;;;;;1999.90;999.90;;;16.00;99.90;;;;;;5013971;28;20189;-74
2022/07/27 06:40:56;;;;;;;1999.90;999.90;;;16.20;99.90;;;;;;5016361;28;20399;-74
2022/07/27 06:43:27;;;;;;;1999.90;999.90;;;16.30;99.90;;;;;;5018101;28;20463;-73
2022/07/27 06:45:53;;;;;;;1999.90;999.90;;;16.30;99.90;;;;;;5020656;28;20253;-74
2022/07/27 06:48:22;;;;;;;1999.90;999.90;;;16.30;99.90;;;;;;5017642;28;20407;-74
2022/07/27 06:50:48;;;;;;;1999.90;999.90;;;16.40;99.90;;;;;;5018456;28;20399;-73
2022/07/27 06:53:14;;;;;;;1999.90;999.90;;;16.60;99.90;;;;;;5023143;28;20413;-74
2022/07/27 06:55:40;;;;;;;1999.90;999.90;;;16.50;99.90;;;;;;5023632;28;20426;-73
2022/07/27 06:58:06;;;;;;;1999.90;999.90;;;16.50;99.90;;;;;;5017794;28;20239;-73
2022/07/27 07:00:32;;;;;;;1999.90;999.90;;;16.70;99.90;;;;;;5018656;28;20888;-73
2022/07/27 07:03:02;;;;;;;1999.90;999.90;;;16.90;99.90;;;;;;5020027;28;20520;-74
2022/07/27 07:05:29;;;;;;;1999.90;999.90;;;17.00;99.90;;;;;;5014871;28;20411;-75
2022/07/27 07:07:55;;;;;;;1999.90;999.90;;;17.10;99.90;;;;;;5013901;28;20829;-75
2022/07/27 07:10:23;;;;;;;1999.90;999.90;;;17.20;99.90;;;;;;5014336;28;20810;-75
2022/07/27 07:12:54;;;;;;;1999.90;999.90;;;17.10;99.90;;;;;;5014258;28;20410;-75
2022/07/27 07:15:21;;;;;;;1999.90;999.90;;;17.00;99.90;;;;;;5014176;28;20469;-75
2022/07/27 07:17:47;;;;;;;1999.90;999.90;;;17.00;99.90;;;;;;5014045;28;20416;-75
2022/07/27 07:20:12;;;;;;;1999.90;999.90;;;17.10;99.90;;;;;;5014081;28;20803;-75
2022/07/27 07:22:38;;;;;;;1999.90;999.90;;;17.30;99.90;;;;;;5013596;28;20208;-75
2022/07/27 07:25:04;;;;;;;1999.90;999.90;;;17.50;99.90;;;;;;5014254;28;20180;-75
2022/07/27 07:27:29;;;;;;;1999.90;999.90;;;17.60;99.90;;;;;;5013710;28;20179;-75
2022/07/27 07:29:55;;;;;;;1999.90;999.90;;;17.60;99.90;;;;;;5013420;28;20449;-75
2022/07/27 07:32:23;;;;;;;1999.90;999.90;;;17.50;99.90;;;;;;5014046;28;20183;-75
2022/07/27 07:34:49;;;;;;;1999.90;999.90;;;17.50;99.90;;;;;;5013856;28;20185;-73
2022/07/27 07:37:16;;;;;;;1999.90;999.90;;;17.50;99.90;;;;;;5013120;28;20415;-73
2022/07/27 07:39:41;;;;;;;1999.90;999.90;;;17.60;99.90;;;;;;5013905;28;20435;-74
2022/07/27 07:42:07;;;;;;;1999.90;999.90;;;17.60;99.90;;;;;;5013632;28;20520;-74
2022/07/27 07:44:33;;;;;;;1999.90;999.90;;;17.60;99.90;;;;;;5013364;28;20178;-73
2022/07/27 07:46:59;;;;;;;1999.90;999.90;;;17.90;99.90;;;;;;5013372;28;20175;-74
2022/07/27 07:49:24;;;;;;;1999.90;999.90;;;18.10;99.90;;;;;;5013560;28;20194;-75
2022/07/27 07:51:50;;;;;;;1999.90;999.90;;;18.20;99.90;;;;;;5012842;28;20419;-75
2022/07/27 07:54:16;;;;;;;1999.90;999.90;;;18.40;99.90;;;;;;5013591;28;20185;-75
2022/07/27 07:56:41;;;;;;;1999.90;999.90;;;18.60;99.90;;;;;;5013224;28;20181;-75
2022/07/27 07:59:07;;;;;;;1999.90;999.90;;;18.70;99.90;;;;;;5012951;28;20243;-75
2022/07/27 08:01:33;;;;;;;1999.90;999.90;;;18.80;99.90;;;;;;5013339;28;20208;-75
2022/07/27 08:03:58;;;;;;;1999.90;999.90;;;18.80;99.90;;;;;;5013405;28;20248;-74
2022/07/27 08:06:24;;;;;;;1999.90;999.90;;;18.60;99.90;;;;;;5013479;28;20173;-74
2022/07/27 08:08:49;;;;;;;1999.90;999.90;;;18.70;99.90;;;;;;5014118;28;20192;-74
2022/07/27 08:11:15;;;;;;;1999.90;999.90;;;18.60;99.90;;;;;;5014029;28;20302;-74
2022/07/27 08:13:41;;;;;;;1999.90;999.90;;;18.80;99.90;;;;;;5013938;28;20632;-72
2022/07/27 08:16:07;;;;;;;1999.90;999.90;;;19.00;99.90;;;;;;5013881;28;20184;-72
2022/07/27 08:18:32;;;;;;;1999.90;999.90;;;19.00;99.90;;;;;;5013917;28;20426;-72
2022/07/27 08:20:58;;;;;;;1999.90;999.90;;;19.10;99.90;;;;;;5013746;28;20198;-73
2022/07/27 08:23:25;;;;;;;1999.90;999.90;;;19.40;99.90;;;;;;5012932;28;20671;-73
2022/07/27 08:25:51;;;;;;;1999.90;999.90;;;19.70;99.90;;;;;;5012890;28;20165;-73
2022/07/27 08:28:17;;;;;;;1999.90;999.90;;;19.80;99.90;;;;;;5012122;28;20409;-73
2022/07/27 08:30:43;;;;;;;1999.90;999.90;;;20.10;99.90;;;;;;5012841;28;20411;-74
2022/07/27 08:33:10;;;;;;;1999.90;999.90;;;20.40;99.90;;;;;;5012862;28;20211;-75
2022/07/27 08:35:35;;;;;;;1999.90;999.90;;;20.50;99.90;;;;;;5012313;28;20416;-75
2022/07/27 08:38:04;;;;;;;1999.90;999.90;;;20.70;99.90;;;;;;5012451;28;20475;-75
2022/07/27 08:40:30;;;;;;;1999.90;999.90;;;20.80;99.90;;;;;;5012918;28;20186;-75
2022/07/27 08:42:56;;;;;;;1999.90;999.90;;;21.00;99.90;;;;;;5010486;28;20543;-74
2022/07/27 08:45:23;;;;;;;1999.90;999.90;;;21.20;99.90;;;;;;5012199;28;20413;-71
2022/07/27 08:47:49;;;;;;;1999.90;999.90;;;21.30;99.90;;;;;;5012031;28;20932;-71
2022/07/27 08:50:23;;;;;;;1999.90;999.90;;;21.30;99.90;;;;;;5011725;28;20437;-71
2022/07/27 08:53:09;;;;;;;1999.90;999.90;;;21.20;99.90;;;;;;5012118;28;20494;-70
2022/07/27 08:55:37;;;;;;;1999.90;999.90;;;21.20;99.90;;;;;;5011707;28;20407;-70
2022/07/27 08:58:03;;;;;;;1999.90;999.90;;;21.20;99.90;;;;;;5011313;28;20409;-69
2022/07/27 09:00:30;;;;;;;1999.90;999.90;;;21.30;99.90;;;;;;5012354;28;20413;-69
2022/07/27 09:02:56;;;;;;;1999.90;999.90;;;21.00;99.90;;;;;;5011768;28;20824;-69
2022/07/27 09:05:22;;;;;;;1999.90;999.90;;;20.70;99.90;;;;;;5010852;28;20401;-70
2022/07/27 09:07:48;;;;;;;1999.90;999.90;;;20.70;99.90;;;;;;5011377;28;20415;-69
2022/07/27 09:10:37;;;;;;;1999.90;999.90;;;20.60;99.90;;;;;;5011696;28;20201;-70
2022/07/27 09:13:23;;;;;;;1999.90;999.90;;;20.50;99.90;;;;;;5012194;28;20832;-72
2022/07/27 09:16:09;;;;;;;1999.90;999.90;;;20.40;99.90;;;;;;5012065;28;20412;-72
2022/07/27 09:18:37;;;;;;;1999.90;999.90;;;20.30;99.90;;;;;;5012390;28;20435;-71
2022/07/27 09:21:18;;;;;;;1999.90;999.90;;;20.10;99.90;;;;;;5012356;28;20406;-69
2022/07/27 09:23:46;;;;;;;1999.90;999.90;;;20.20;99.90;;;;;;5012388;28;20483;-71
2022/07/27 09:26:18;;;;;;;1999.90;999.90;;;20.30;99.90;;;;;;5011068;28;20920;-69
2022/07/27 09:28:44;;;;;;;1999.90;999.90;;;20.30;99.90;;;;;;5011277;28;20450;-69
2022/07/27 09:31:13;;;;;;;1999.90;999.90;;;20.60;99.90;;;;;;5011480;28;20412;-71
2022/07/27 09:33:51;;;;;;;1999.90;999.90;;;20.80;99.90;;;;;;5011015;28;20623;-71
2022/07/27 09:36:18;;;;;;;1999.90;999.90;;;21.20;99.90;;;;;;5011286;28;20832;-71
2022/07/27 09:38:56;;;;;;;1999.90;999.90;;;21.50;99.90;;;;;;5011208;28;20541;-71
2022/07/27 09:41:22;;;;;;;1999.90;999.90;;;21.80;99.90;;;;;;5011016;28;20776;-71
2022/07/27 09:43:53;;;;;;;1999.90;999.90;;;21.70;99.00;;;;;;5010994;28;20384;-69
2022/07/27 09:46:33;;;;;;;1999.90;999.90;;;21.70;99.90;;;;;;5010853;28;20911;-68
2022/07/27 09:48:59;;;;;;;1999.90;999.90;;;21.80;99.20;;;;;;5010853;28;20441;-69
2022/07/27 09:51:24;;;;;;;1999.90;999.90;;;21.90;99.30;;;;;;5011474;28;20975;-69
2022/07/27 09:53:52;;;;;;;1999.90;999.90;;;22.10;98.10;;;;;;5010351;28;20397;-69
2022/07/27 09:56:25;;;;;;;1999.90;999.90;;;22.30;96.20;;;;;;5003647;28;20263;-70
2022/07/27 09:58:55;;;;;;;1999.90;999.90;;;22.30;95.80;;;;;;5003581;28;20806;-69
2022/07/27 10:01:26;;;;;;;1999.90;999.90;;;22.40;93.40;;;;;;5010445;28;20945;-69
2022/07/27 10:03:54;;;;;;;1999.90;999.90;;;22.60;91.80;;;;;;4997188;28;20481;-70
2022/07/27 10:06:21;;;;;;;1999.90;999.90;;;23.00;90.50;;;;;;5010413;28;20401;-71
2022/07/27 10:08:48;;;;;;;1999.90;999.90;;;23.20;91.90;;;;;;5011043;28;20407;-70
2022/07/27 10:11:15;;;;;;;1999.90;999.90;;;23.30;91.10;;;;;;5009779;28;20394;-68
2022/07/27 10:13:41;;;;;;;1999.90;999.90;;;23.40;90.10;;;;;;5009534;28;20920;-70
2022/07/27 10:16:21;;;;;;;1999.90;999.90;;;23.40;88.60;;;;;;5012569;28;20420;-70
2022/07/27 10:19:06;;;;;;;1999.90;999.90;;;23.30;86.50;;;;;;5021438;28;20437;-70
2022/07/27 10:21:33;;;;;;;1999.90;999.90;;;23.10;80.80;;;;;;5023305;28;20455;-70
2022/07/27 10:24:00;;;;;;;1999.90;999.90;;;23.10;80.50;;;;;;5016455;28;20415;-69
2022/07/27 10:26:29;;;;;;;1999.90;999.90;;;23.10;81.60;;;;;;5013847;28;20422;-68
2022/07/27 10:28:59;;;;;;;1999.90;999.90;;;23.40;78.40;;;;;;5013306;28;20456;-69
2022/07/27 10:31:27;;;;;;;1999.90;999.90;;;23.80;75.60;;;;;;5014230;28;20378;-70
2022/07/27 10:33:55;;;;;;;1999.90;999.90;;;24.10;72.10;;;;;;5013121;28;20400;-70
2022/07/27 10:36:26;;;;;;;1999.90;999.90;;;24.60;70.50;;;;;;5013193;28;20716;-70
2022/07/27 10:38:55;;;;;;;1999.90;999.90;;;24.30;64.00;;;;;;5013028;28;20402;-69
2022/07/27 10:41:25;;;;;;;1999.90;999.90;;;23.90;64.30;;;;;;5012963;28;20381;-70
2022/07/27 10:44:13;;;;;;;1999.90;999.90;;;23.70;61.60;;;;;;5013660;28;20407;-70
2022/07/27 10:46:51;;;;;;;1999.90;999.90;;;22.90;57.50;;;;;;5012769;28;20393;-69
2022/07/27 10:49:23;;;;;;;1999.90;999.90;;;22.40;57.70;;;;;;5012810;28;20921;-70
2022/07/27 10:51:51;;;;;;;1999.90;999.90;;;21.90;58.10;;;;;;5013201;28;20930;-70
2022/07/27 10:54:38;;;;;;;1999.90;999.90;;;21.80;67.80;;;;;;5012930;28;20468;-70
2022/07/27 10:57:08;;;;;;;1999.90;999.90;;;22.10;73.70;;;;;;5012389;28;20410;-70
2022/07/27 10:59:39;;;;;;;1999.90;999.90;;;22.40;66.30;;;;;;5012553;28;20852;-70
2022/07/27 11:02:13;;;;;;;1999.90;999.90;;;22.40;68.10;;;;;;5012782;28;20488;-71
2022/07/27 11:04:57;;;;;;;1999.90;999.90;;;22.40;60.60;;;;;;5012636;28;20918;-70
2022/07/27 11:07:26;;;;;;;1999.90;999.90;;;22.80;58.90;;;;;;5012389;28;20408;-70
2022/07/27 11:09:52;;;;;;;1999.90;999.90;;;23.20;61.50;;;;;;5009657;28;20433;-70
2022/07/27 11:12:18;;;;;;;1999.90;999.90;;;23.60;61.40;;;;;;5012893;28;21140;-71
2022/07/27 11:14:52;;;;;;;1999.90;999.90;;;23.50;64.10;;;;;;5011433;28;20387;-70
2022/07/27 11:17:28;;;;;;;1999.90;999.90;;;23.20;64.70;;;;;;5011383;28;20385;-70
2022/07/27 11:19:57;;;;;;;1999.90;999.90;;;23.00;67.80;;;;;;5012558;28;20806;-71
2022/07/27 11:22:28;;;;;;;1999.90;999.90;;;23.00;68.20;;;;;;5012626;28;20453;-70
2022/07/27 11:24:54;;;;;;;1999.90;999.90;;;22.70;66.80;;;;;;5012188;28;20382;-70
2022/07/27 11:27:19;;;;;;;1999.90;999.90;;;22.50;69.30;;;;;;5011552;28;20395;-70
2022/07/27 11:29:45;;;;;;;1999.90;999.90;;;22.10;70.10;;;;;;5011906;28;20219;-69
2022/07/27 11:32:16;;;;;;;1999.90;999.90;;;21.80;70.30;;;;;;5011986;28;20171;-71
2022/07/27 11:34:42;;;;;;;1999.90;999.90;;;21.80;73.80;;;;;;5011791;28;20173;-70
2022/07/27 11:37:19;;;;;;;1999.90;999.90;;;22.00;69.20;;;;;;5010240;28;20414;-70
2022/07/27 11:39:47;;;;;;;1999.90;999.90;;;22.10;67.60;;;;;;5011650;28;20248;-70
2022/07/27 11:42:14;;;;;;;1999.90;999.90;;;22.00;65.30;;;;;;5012327;28;20470;-69
2022/07/27 11:44:45;;;;;;;1999.90;999.90;;;21.90;64.20;;;;;;5012182;28;20966;-69
2022/07/27 11:47:15;;;;;;;1999.90;999.90;;;21.90;65.50;;;;;;5011386;28;20879;-70
2022/07/27 11:49:41;;;;;;;1999.90;999.90;;;22.20;66.80;;;;;;5011633;28;20431;-69
2022/07/27 11:52:08;;;;;;;1999.90;999.90;;;22.50;66.20;;;;;;5012108;28;20951;-69
2022/07/27 11:54:37;;;;;;;1999.90;999.90;;;22.50;66.30;;;;;;5011616;28;20269;-70
2022/07/27 11:57:30;;;;;;;1999.90;999.90;;;22.80;71.40;;;;;;5010818;28;20423;-69
2022/07/27 11:59:56;;;;;;;1999.90;999.90;;;23.20;65.00;;;;;;5011814;28;20433;-69
2022/07/27 12:02:21;;;;;;;1999.90;999.90;;;23.00;61.20;;;;;;5011361;28;20425;-69
2022/07/27 12:04:49;;;;;;;1999.90;999.90;;;22.90;61.50;;;;;;5010823;28;20200;-69